Centerton, New Jersey
Current Conditions -  °F | °C
As of 11:54 PM on Friday 24 Oct 2014 (Local Time) from KMIV Reporting Station
Clear Clear  
Wind Chill: 50°   Ceiling: Unl
Heat Index: 50°   Visibility: 10mi
Dew Point: 41°   Wind: 9mph
Humidity: 71%   Direction: 270°W
Pressure: 29.89"   Gusts: NA
Location:  39.5646°N, 75.1874°W
Report Text: KMIV 250354Z AUTO 27008KT 10SM CLR 10/05 A2989 RMK AO2 SLP120 T01000050
Loading
Personal Weather Stations






























Interactive Weather Map
Tropical Storm Tracking
New forecast layout! Learn more

10-Day Weather Forecast

Advertisements
Track Severe Weather on mobile